Latest Weather Observations for Norseman Airport

IDW60801

Issued at 8:03 am WST Saturday 25 April 2015 (issued every 30 minutes, with the page automatically refreshed every 10 minutes)

About weather observations | Map of weather stations | Latest weather observations for WA | Other Formats
Station Details ID: 012009 Name: NORSEMAN AERO Lat: -32.21 Lon: 121.75 Height: 262.5 m
Data from the previous 72 hours. | See also: Recent months at Norseman Airport
Date/Time
WST
Temp
°C
App
Temp
°C
Dew
Point
Rel
Hum
%
Delta-T
°C
Wind Press
QNH
hPa
Press
MSL
hPa
Rain
since 9 am
mm
Dir
 
Spd
km/h
Gust
km/h
Spd
kts
Gust
kts
25/08:00am 7.6 5.9 7.5 99 0.0 SW 6 7 3 4 1029.2 1028.6 0.0
25/07:30am 6.2 4.0 6.1 99 0.0 SW 7 7 4 4 1028.9 1028.3 0.0
25/07:00am 5.1 2.6 5.0 99 0.0 SSW 7 9 4 5 1028.4 1027.8 0.0
25/06:30am 4.1 1.5 4.0 99 0.0 SSW 7 9 4 5 1028.0 1027.3 0.0
25/06:00am 4.4 1.4 4.3 99 0.0 SW 9 11 5 6 1027.9 1027.2 0.0
25/05:30am 5.2 2.7 4.9 98 0.1 SW 7 9 4 5 1027.8 1027.1 0.0
25/05:00am 5.5 2.3 5.1 97 0.2 S 11 13 6 7 1027.8 1027.1 0.0
25/04:30am 4.8 3.0 3.6 92 0.5 SSE 2 7 1 4 1027.5 1026.8 0.0
25/04:00am 5.8 3.2 4.4 91 0.6 S 7 9 4 5 1027.6 1026.9 0.0
25/03:30am 7.4 5.3 5.9 90 0.7 SW 6 7 3 4 1027.5 1026.8 0.0
25/03:00am 8.1 6.1 6.4 89 0.8 S 6 7 3 4 1027.5 1026.8 0.0
25/02:30am 7.9 5.9 6.4 90 0.7 S 6 7 3 4 1027.6 1026.9 0.0
25/02:00am 7.1 5.3 5.6 90 0.7 SSE 4 6 2 3 1028.0 1027.3 0.0
25/01:30am 6.9 4.7 5.5 91 0.6 SE 6 6 3 3 1028.0 1027.3 0.0
25/01:00am 7.8 6.9 6.1 89 0.8 CALM 0 6 0 3 1027.9 1027.2 0.0
25/12:30am 8.4 6.7 5.9 84 1.1 SE 4 6 2 3 1027.8 1027.1 0.0
25/12:00am 10.4 8.6 7.1 80 1.6 SE 6 7 3 4 1028.1 1027.4 0.0
 
Date/Time
WST
Temp
°C
App
Temp
°C
Dew
Point
Rel
Hum
%
Delta-T
°C
Wind Press
QNH
hPa
Press
MSL
hPa
Rain
since 9 am
mm
Dir
 
Spd
km/h
Gust
km/h
Spd
kts
Gust
kts
24/11:30pm 11.4 9.7 7.5 77 1.9 E 6 9 3 5 1028.0 1027.3 0.0
24/11:00pm 11.5 9.1 7.2 75 2.1 ESE 9 13 5 7 1027.9 1027.2 0.0
24/10:30pm 11.4 8.5 6.7 73 2.2 SE 11 17 6 9 1028.2 1027.6 0.0
24/10:00pm 12.1 8.9 6.8 70 2.6 SE 13 15 7 8 1028.2 1027.6 0.0
24/09:30pm 12.7 9.2 7.0 68 2.8 SSE 15 20 8 11 1028.3 1027.7 0.0
24/09:00pm 13.2 9.2 6.8 65 3.1 SSE 17 28 9 15 1028.4 1027.8 0.0
24/08:30pm 13.4 9.1 7.0 65 3.1 SE 19 28 10 15 1028.2 1027.6 0.0
24/08:00pm 13.8 9.9 6.9 63 3.4 SSE 17 24 9 13 1028.3 1027.7 0.0
24/07:30pm 14.0 10.0 6.8 62 3.5 SSE 17 24 9 13 1028.0 1027.3 0.0
24/07:00pm 14.4 11.1 6.5 59 3.8 SSE 13 20 7 11 1027.8 1027.1 0.0
24/06:30pm 14.5 11.2 6.3 58 4.0 SSE 13 19 7 10 1027.6 1026.9 0.0
24/06:00pm 14.9 11.6 6.2 56 4.2 SSE 13 28 7 15 1027.4 1026.7 0.0
24/05:30pm 15.1 11.6 5.6 53 4.6 SSE 13 17 7 9 1027.0 1026.4 0.0
24/05:00pm 15.2 10.7 6.0 54 4.5 S 19 28 10 15 1026.6 1026.0 0.0
24/04:30pm 15.3 11.1 5.5 52 4.7 SSE 17 24 9 13 1026.5 1025.9 0.0
24/04:00pm 15.6 11.0 5.8 52 4.7 SSE 19 32 10 17 1026.4 1025.8 0.0
24/03:30pm 15.7 10.8 5.0 49 5.1 SSE 20 33 11 18 1026.5 1025.9 0.0
24/03:00pm 15.3 10.2 5.8 53 4.6 SSE 22 32 12 17 1026.6 1026.0 0.0
24/02:30pm 15.6 11.4 5.5 51 4.9 SSE 17 24 9 13 1026.7 1026.1 0.0
24/02:00pm 15.5 10.3 5.4 51 4.8 S 22 33 12 18 1026.7 1026.1 0.0
24/01:30pm 15.3 10.3 4.7 49 5.0 S 20 32 11 17 1027.0 1026.4 0.0
24/01:00pm 15.2 10.1 4.3 48 5.1 SSE 20 32 11 17 1027.4 1026.7 0.0
24/12:30pm 15.4 10.5 5.0 50 5.0 SSE 20 33 11 18 1027.5 1026.8 0.0
24/12:00pm 14.6 10.4 5.7 55 4.3 S 17 28 9 15 1028.1 1027.4 0.0
24/11:30am 14.1 9.5 5.5 56 4.1 SSE 19 26 10 14 1028.9 1028.3 0.0
24/11:00am 13.7 8.8 5.3 57 4.0 SSE 20 30 11 16 1029.1 1028.5 0.0
24/10:30am 13.6 8.9 5.3 57 3.9 SSE 19 28 10 15 1029.2 1028.6 0.0
24/10:00am 13.3 8.4 5.2 58 3.8 SSE 20 35 11 19 1029.2 1028.6 0.0
24/09:30am 13.0 8.4 5.4 60 3.6 SSE 19 28 10 15 1029.1 1028.5 0.0
24/09:00am 12.6 8.4 5.8 63 3.2 SSE 17 24 9 13 1029.3 1028.7 0.2
24/08:30am 12.1 7.7 4.8 61 3.4 S 17 22 9 12 1029.3 1028.7 0.2
24/08:00am 12.0 8.3 4.2 59 3.5 SSE 13 19 7 10 1029.1 1028.5 0.2
24/07:30am 11.6 8.6 4.1 60 3.4 S 9 13 5 7 1028.6 1028.0 0.2
24/07:00am 11.3 6.7 3.6 59 3.4 SSE 17 22 9 12 1028.3 1027.7 0.2
24/06:30am 11.2 6.1 3.0 57 3.6 S 19 26 10 14 1028.1 1027.4 0.2
24/06:00am 11.1 7.4 4.3 63 3.1 SSE 13 19 7 10 1027.9 1027.2 0.2
24/05:30am 11.3 6.1 3.6 59 3.5 S 20 33 11 18 1027.6 1026.9 0.2
24/05:00am 11.0 7.7 4.7 65 2.9 S 11 17 6 9 1027.4 1026.7 0.2
24/04:30am 11.0 8.1 4.7 65 2.9 S 9 13 5 7 1027.2 1026.5 0.2
24/04:00am 11.0 8.1 4.5 64 2.9 SSE 9 13 5 7 1027.0 1026.4 0.2
24/03:30am 11.1 7.7 4.1 62 3.2 SSE 11 20 6 11 1026.7 1026.1 0.2
24/03:00am 11.3 7.2 4.3 62 3.2 SSE 15 22 8 12 1026.6 1026.0 0.2
24/02:30am 11.4 6.4 4.4 62 3.2 SSE 20 32 11 17 1026.8 1026.2 0.2
24/02:00am 11.4 8.0 5.9 69 2.6 SSE 13 30 7 16 1026.6 1026.0 0.2
24/01:30am 11.5 7.4 6.0 69 2.6 S 17 24 9 13 1026.5 1025.9 0.2
24/01:00am 11.6 7.5 6.3 70 2.5 S 17 22 9 12 1026.4 1025.8 0.2
24/12:30am 11.7 8.2 7.2 74 2.2 S 15 20 8 11 1026.5 1025.9 0.2
24/12:00am 11.7 8.9 8.7 82 1.5 S 13 17 7 9 1026.5 1025.9 0.2
 
Date/Time
WST
Temp
°C
App
Temp
°C
Dew
Point
Rel
Hum
%
Delta-T
°C
Wind Press
QNH
hPa
Press
MSL
hPa
Rain
since 9 am
mm
Dir
 
Spd
km/h
Gust
km/h
Spd
kts
Gust
kts
23/11:30pm 12.0 8.6 9.2 83 1.4 S 17 26 9 14 1026.4 1025.8 0.2
23/11:00pm 11.8 8.6 10.0 89 0.9 S 17 22 9 12 1026.3 1025.7 0.2
23/10:30pm 11.6 8.6 10.5 93 0.6 S 17 24 9 13 1026.2 1025.6 0.2
23/10:00pm 11.8 9.0 11.3 97 0.3 S 17 26 9 14 1026.3 1025.7 0.2
23/09:30pm 11.9 8.5 11.4 97 0.3 S 20 30 11 16 1026.3 1025.7 0.2
23/09:00pm 12.2 7.0 8.7 79 1.8 S 26 39 14 21 1026.2 1025.6 0.0
23/08:30pm 13.7 9.8 7.0 64 3.3 S 17 28 9 15 1025.9 1025.3 0.0
23/08:00pm 14.3 10.6 6.4 59 3.8 S 15 24 8 13 1025.7 1025.1 0.0
23/07:30pm 14.2 10.0 5.6 56 4.1 S 17 26 9 14 1025.5 1024.9 0.0
23/07:00pm 15.0 9.5 6.0 55 4.4 S 24 33 13 18 1025.3 1024.7 0.0
23/06:30pm 14.8 10.3 6.1 56 4.2 S 19 26 10 14 1024.9 1024.3 0.0
23/06:00pm 15.3 10.7 6.6 56 4.3 S 20 33 11 18 1024.5 1023.8 0.0
23/05:30pm 15.9 10.9 6.6 54 4.6 S 22 33 12 18 1024.0 1023.3 0.0
23/05:00pm 16.9 10.8 6.4 50 5.2 SSW 28 43 15 23 1023.6 1022.9 0.0
23/04:30pm 18.1 12.1 6.9 48 5.7 SSW 28 43 15 23 1023.0 1022.4 0.0
23/04:00pm 19.0 12.4 7.8 48 5.8 SSW 32 43 17 23 1022.8 1022.2 0.0
23/03:30pm 19.8 14.6 8.8 49 5.8 S 26 39 14 21 1022.5 1021.9 0.0
23/03:08pm 19.3 13.9 9.5 53 5.3 S 28 50 15 27 1022.2 1021.6 0.0
23/03:00pm 19.6 13.4 9.2 51 5.5 SSW 32 44 17 24 1022.1 1021.5 0.0
23/02:30pm 21.2 15.5 9.8 48 6.2 SSW 30 41 16 22 1021.7 1021.1 0.0
23/02:12pm 21.0 15.5 9.3 47 6.3 S 28 46 15 25 1021.6 1021.0 0.0
23/02:00pm 21.2 16.0 10.1 49 6.1 SSW 28 44 15 24 1021.5 1020.8 0.0
23/01:30pm 21.1 15.5 8.7 45 6.6 SSW 28 39 15 21 1021.3 1020.6 0.0
23/01:00pm 22.0 16.4 8.9 43 7.0 SSW 28 39 15 21 1021.4 1020.7 0.0
23/12:30pm 21.8 16.2 8.7 43 7.0 SSW 28 41 15 22 1021.7 1021.1 0.0
23/12:00pm 22.2 17.7 6.8 37 8.0 SSW 20 30 11 16 1022.0 1021.4 0.0
23/11:30am 20.7 15.8 8.4 45 6.5 S 24 33 13 18 1022.3 1021.7 0.0
23/11:00am 20.2 15.9 10.6 54 5.3 S 24 33 13 18 1022.6 1022.0 0.0
23/10:30am 18.8 15.4 11.4 62 4.1 SSW 20 35 11 19 1022.8 1022.2 0.0
23/10:00am 18.0 14.0 10.6 62 4.0 S 22 32 12 17 1022.8 1022.2 0.0
23/09:30am 16.9 13.2 11.4 70 3.0 S 22 30 12 16 1022.7 1022.1 0.0
23/09:00am 14.1 11.6 12.3 89 1.0 SSW 17 24 9 13 1022.8 1022.2 0.0
23/08:30am 11.3 9.2 11.1 99 0.1 SSW 13 17 7 9 1022.9 1022.3 0.0
23/08:00am 9.5 7.3 9.4 99 0.1 SSW 11 15 6 8 1022.7 1022.1 0.0
23/07:30am 8.1 5.0 5.4 83 1.2 SW 11 13 6 7 1022.5 1021.9 0.0
23/07:00am 5.6 2.9 2.9 83 1.1 S 6 7 3 4 1022.0 1021.4 0.0
23/06:30am 4.4 1.6 1.8 83 1.0 SSE 6 7 3 4 1021.6 1021.0 0.0
23/06:00am 5.2 2.2 2.2 81 1.2 SSW 7 11 4 6 1021.3 1020.6 0.0
23/05:30am 6.0 2.4 2.8 80 1.3 SSW 11 13 6 7 1021.1 1020.4 0.0
23/05:00am 4.8 0.6 1.8 81 1.2 SW 13 15 7 8 1020.9 1020.2 0.0
23/04:30am 4.9 1.8 1.4 78 1.4 SW 7 11 4 6 1020.5 1019.8 0.0
23/04:00am 5.5 2.1 1.8 77 1.5 SW 9 9 5 5 1020.3 1019.6 0.0
23/03:30am 5.5 1.7 1.8 77 1.5 SW 11 13 6 7 1020.2 1019.5 0.0
23/03:00am 5.8 2.4 1.7 75 1.7 SW 9 11 5 6 1020.1 1019.4 0.0
23/02:30am 6.2 2.8 1.7 73 1.8 SW 9 13 5 7 1020.1 1019.4 0.0
23/02:00am 6.4 2.6 1.9 73 1.8 SW 11 13 6 7 1020.3 1019.6 0.0
23/01:30am 6.9 4.4 1.8 70 2.1 SSW 4 6 2 3 1020.3 1019.6 0.0
23/01:00am 7.3 4.3 1.8 68 2.3 SW 7 7 4 4 1020.3 1019.6 0.0
23/12:30am 8.3 4.9 2.1 65 2.6 SSW 9 11 5 6 1020.3 1019.6 0.0
23/12:00am 8.6 5.3 2.4 65 2.6 SSW 9 9 5 5 1020.2 1019.5 0.0
 
Date/Time
WST
Temp
°C
App
Temp
°C
Dew
Point
Rel
Hum
%
Delta-T
°C
Wind Press
QNH
hPa
Press
MSL
hPa
Rain
since 9 am
mm
Dir
 
Spd
km/h
Gust
km/h
Spd
kts
Gust
kts
22/11:30pm 10.0 7.3 2.4 59 3.3 SSW 6 9 3 5 1020.2 1019.5 0.0
22/11:00pm 10.5 7.2 2.4 57 3.5 SSW 9 11 5 6 1020.3 1019.6 0.0
22/10:30pm 11.3 7.8 3.6 59 3.5 SW 11 11 6 6 1020.5 1019.8 0.0
22/10:00pm 11.3 8.7 3.1 57 3.6 SE 6 13 3 7 1020.6 1019.9 0.0
22/09:30pm 11.7 9.6 3.7 58 3.6 SSW 4 7 2 4 1020.5 1019.8 0.0
22/09:00pm 13.0 9.5 3.7 53 4.2 SW 11 13 6 7 1020.6 1019.9 0.0
22/08:30pm 15.5 14.2 4.2 47 5.3 CALM 0 6 0 3 1020.6 1019.9 0.0
22/08:00pm 16.8 14.6 5.1 46 5.6 S 6 7 3 4 1020.5 1019.8 0.0
22/07:30pm 19.0 15.2 2.0 32 7.9 SSE 11 13 6 7 1020.5 1019.8 0.0
22/07:00pm 19.4 15.6 1.9 31 8.1 SSE 11 17 6 9 1020.4 1019.7 0.0
22/06:30pm 19.8 15.6 1.7 30 8.4 SSE 13 17 7 9 1020.3 1019.6 0.0
22/06:00pm 18.4 15.1 2.7 35 7.3 SSE 9 11 5 6 1020.0 1019.3 0.0
22/05:30pm 21.4 18.1 2.6 29 9.0 S 9 11 5 6 1019.8 1019.1 0.0
22/05:00pm 23.5 19.3 1.8 24 10.3 S 13 17 7 9 1019.6 1018.9 0.0
22/04:30pm 24.3 20.1 1.9 23 10.8 SSW 13 17 7 9 1019.4 1018.7 0.0
22/04:00pm 24.6 20.5 2.1 23 10.8 S 13 19 7 10 1019.2 1018.5 0.0
22/03:30pm 24.7 20.6 2.2 23 10.9 S 13 20 7 11 1019.2 1018.5 0.0
22/03:00pm 25.2 20.4 2.6 23 11.0 SSW 17 22 9 12 1019.2 1018.5 0.0
22/02:30pm 25.3 22.0 2.7 23 11.1 W 9 17 5 9 1019.2 1018.5 0.0
22/02:00pm 24.3 20.2 2.5 24 10.6 S 13 19 7 10 1019.5 1018.8 0.0
22/01:30pm 24.9 22.3 3.0 24 10.8 N 6 11 3 6 1019.8 1019.1 0.0
22/01:00pm 23.5 20.0 1.2 23 10.5 NW 9 13 5 7 1020.2 1019.5 0.0
22/12:30pm 23.0 19.2 1.9 25 10.0 NNW 11 19 6 10 1020.8 1020.1 0.0
22/12:00pm 21.5 17.2 1.2 26 9.4 NNW 13 20 7 11 1021.4 1020.7 0.0
22/11:30am 21.0 16.4 1.8 28 9.0 NNW 15 24 8 13 1022.0 1021.4 0.0
22/11:00am 20.5 15.6 1.9 29 8.6 NNW 17 22 9 12 1022.6 1022.0 0.0
22/10:30am 20.2 15.7 2.1 30 8.5 N 15 20 8 11 1022.8 1022.2 0.0
22/10:00am 18.8 14.8 3.0 35 7.4 N 13 19 7 10 1023.3 1022.6 0.0
22/09:30am 17.7 12.1 3.2 38 6.8 N 22 26 12 14 1023.5 1022.8 0.0
22/09:00am 16.8 13.1 4.5 44 5.9 N 13 19 7 10 1023.7 1023.0 0.0
22/08:30am 14.5 11.9 4.2 50 4.8 W 7 9 4 5 1023.5 1022.8 0.0

Other Formats:

Comma delimited format used in spreadsheet applications
http://www.bom.gov.au/fwo/IDW60801/IDW60801.95642.axf

JavaScript Object Notation format (JSON) in row-major order
http://www.bom.gov.au/fwo/IDW60801/IDW60801.95642.json